Time;durP1;ratioP1;P1;durP2;ratioP2;P2;SDS_P1;SDS_P2;PMS_P1;PMS_P2;Temp;Humidity;BMP_temperature;BMP_pressure;BME280_temperature;BME280_humidity;BME280_pressure;Samples;Min_cycle;Max_cycle;Signal;HPM_P1;HPM_P2
2022/05/07 00:00:06;;;;;;;18.70;16.98;;;13.90;99.90;;;;;;4970868;28;20029;-70
2022/05/07 00:02:34;;;;;;;20.45;18.60;;;;;;;;;;4971675;28;20023;-70
2022/05/07 00:05:00;;;;;;;22.25;20.33;;;13.80;99.90;;;;;;4971321;28;20415;-70
2022/05/07 00:07:25;;;;;;;22.73;20.60;;;13.80;99.90;;;;;;4971510;28;20027;-70
2022/05/07 00:09:51;;;;;;;21.58;19.55;;;13.80;99.90;;;;;;4971025;28;20043;-70
2022/05/07 00:12:16;;;;;;;21.17;19.38;;;13.70;99.90;;;;;;4971374;28;20027;-70
2022/05/07 00:14:42;;;;;;;20.73;19.00;;;14.00;99.90;;;;;;4971150;28;20082;-70
2022/05/07 00:19:52;;;;;;;;;;;13.70;99.90;;;;;;4972045;28;20077;-70
2022/05/07 00:22:17;;;;;;;17.98;16.45;;;13.60;99.90;;;;;;4971247;28;20303;-70
2022/05/07 00:24:43;;;;;;;19.33;17.75;;;13.60;99.90;;;;;;4971648;28;20031;-70
2022/05/07 00:27:09;;;;;;;19.60;17.92;;;13.70;99.90;;;;;;4972733;28;20484;-70
2022/05/07 00:29:35;;;;;;;20.27;18.55;;;;;;;;;;4971053;28;20119;-70
2022/05/07 00:32:01;;;;;;;20.58;18.67;;;;;;;;;;4971170;28;20050;-70
2022/05/07 00:34:27;;;;;;;21.90;19.73;;;13.70;99.90;;;;;;4971600;28;20027;-69
2022/05/07 00:36:52;;;;;;;20.77;18.45;;;13.70;99.90;;;;;;4973429;28;20034;-71
2022/05/07 00:39:18;;;;;;;22.42;19.75;;;;;;;;;;4977089;28;20286;-70
2022/05/07 00:41:44;;;;;;;20.67;18.88;;;13.80;99.90;;;;;;4976178;28;20037;-70
2022/05/07 00:44:09;;;;;;;20.20;18.30;;;13.80;99.90;;;;;;4974124;28;20027;-70
2022/05/07 00:46:36;;;;;;;20.42;18.58;;;13.70;99.90;;;;;;4974668;28;20026;-70
2022/05/07 00:49:02;;;;;;;21.90;19.90;;;;;;;;;;4974347;28;20110;-70
2022/05/07 00:51:33;;;;;;;22.40;20.40;;;13.80;99.90;;;;;;4974793;28;20317;-70
2022/05/07 00:54:01;;;;;;;22.60;20.50;;;13.70;99.90;;;;;;4974317;28;20102;-71
2022/05/07 00:56:26;;;;;;;23.73;21.65;;;13.30;99.90;;;;;;4974372;28;20384;-70
2022/05/07 00:58:52;;;;;;;22.15;20.17;;;;;;;;;;4974046;28;20089;-70
2022/05/07 01:01:18;;;;;;;20.45;18.48;;;13.60;99.90;;;;;;4974128;28;20041;-70
2022/05/07 01:03:46;;;;;;;22.83;20.90;;;;;;;;;;4974122;28;20038;-70
2022/05/07 01:06:12;;;;;;;21.77;19.65;;;13.60;99.90;;;;;;4973983;28;20488;-70
2022/05/07 01:08:37;;;;;;;22.70;20.52;;;13.60;99.90;;;;;;4974281;28;20033;-70
2022/05/07 01:11:03;;;;;;;20.33;18.60;;;13.30;99.90;;;;;;4973764;28;20126;-70
2022/05/07 01:13:30;;;;;;;21.25;19.38;;;13.60;99.90;;;;;;4973626;28;20071;-70
2022/05/07 01:15:57;;;;;;;20.52;18.63;;;13.50;99.90;;;;;;4973818;28;20034;-69
2022/05/07 01:18:23;;;;;;;21.60;19.55;;;13.50;99.90;;;;;;4973298;28;20041;-70
2022/05/07 01:20:49;;;;;;;23.00;20.48;;;;;;;;;;4974197;28;20035;-70
2022/05/07 01:23:17;;;;;;;20.98;19.17;;;13.50;99.90;;;;;;4974018;28;20081;-70
2022/05/07 01:25:43;;;;;;;23.60;21.35;;;13.90;99.90;;;;;;4973979;28;20476;-70
2022/05/07 01:28:08;;;;;;;21.73;19.83;;;13.20;99.90;;;;;;4973208;28;20113;-70
2022/05/07 01:30:34;;;;;;;21.85;19.95;;;13.40;99.90;;;;;;4973635;28;20054;-70
2022/05/07 01:33:00;;;;;;;22.13;20.30;;;;;;;;;;4973526;28;20061;-70
2022/05/07 01:35:26;;;;;;;22.48;20.35;;;13.30;99.90;;;;;;4973918;28;20094;-70
2022/05/07 01:37:52;;;;;;;22.45;20.45;;;;;;;;;;4974015;28;20026;-69
2022/05/07 01:40:18;;;;;;;21.60;19.67;;;;;;;;;;4973572;28;20030;-70
2022/05/07 01:42:43;;;;;;;23.17;20.88;;;13.30;99.90;;;;;;4973103;28;20030;-70
2022/05/07 01:45:09;;;;;;;21.73;19.77;;;13.20;99.90;;;;;;4972907;28;20062;-70
2022/05/07 01:50:23;;;;;;;20.80;18.90;;;13.30;99.90;;;;;;4972162;28;20070;-70
2022/05/07 01:52:49;;;;;;;19.58;17.77;;;13.20;99.90;;;;;;4973272;28;20026;-70
2022/05/07 01:55:15;;;;;;;20.08;18.27;;;;;;;;;;4972491;28;20110;-70
2022/05/07 01:57:40;;;;;;;19.45;17.77;;;13.10;99.90;;;;;;4973078;28;20533;-70
2022/05/07 02:00:06;;;;;;;18.90;17.00;;;13.00;99.90;;;;;;4972256;28;20086;-70
2022/05/07 02:02:32;;;;;;;18.92;17.33;;;13.00;99.90;;;;;;4973068;28;20035;-70
2022/05/07 02:04:57;;;;;;;18.75;17.00;;;13.10;99.90;;;;;;4973135;28;20403;-70
2022/05/07 02:07:23;;;;;;;19.33;17.42;;;;;;;;;;4972840;28;20457;-70
2022/05/07 02:09:49;;;;;;;19.33;17.40;;;13.00;99.90;;;;;;4972575;28;20031;-70
2022/05/07 02:12:14;;;;;;;18.73;17.02;;;13.00;99.90;;;;;;4972804;28;20041;-70
2022/05/07 02:14:40;;;;;;;17.45;15.95;;;12.80;99.90;;;;;;4972601;28;20455;-70
2022/05/07 02:17:05;;;;;;;19.60;17.70;;;12.80;99.90;;;;;;4972608;28;20078;-69
2022/05/07 02:19:31;;;;;;;18.27;16.52;;;;;;;;;;4972946;28;20038;-70
2022/05/07 02:21:57;;;;;;;18.70;16.90;;;12.90;99.90;;;;;;4973196;28;20102;-70
2022/05/07 02:24:22;;;;;;;19.80;18.00;;;12.90;99.90;;;;;;4972093;28;20472;-70
2022/05/07 02:26:48;;;;;;;20.08;18.20;;;12.90;99.90;;;;;;4972783;28;20085;-70
2022/05/07 02:29:14;;;;;;;20.35;18.42;;;12.80;99.90;;;;;;4972377;28;20510;-70
2022/05/07 02:31:40;;;;;;;20.50;18.80;;;12.80;99.90;;;;;;4972658;28;20058;-70
2022/05/07 02:34:06;;;;;;;21.67;19.70;;;12.90;99.90;;;;;;4972422;28;20018;-70
2022/05/07 02:36:32;;;;;;;21.77;19.77;;;12.80;99.90;;;;;;4972629;28;20081;-70
2022/05/07 02:38:58;;;;;;;22.98;20.67;;;;;;;;;;4972211;28;20023;-71
2022/05/07 02:44:08;;;;;;;22.23;20.08;;;;;;;;;;4972190;28;20568;-70
2022/05/07 02:46:35;;;;;;;22.60;20.73;;;12.80;99.90;;;;;;4971942;28;20114;-70
2022/05/07 02:49:01;;;;;;;22.60;20.60;;;;;;;;;;4971856;28;20105;-70
2022/05/07 02:51:27;;;;;;;22.85;20.60;;;;;;;;;;4972959;28;20134;-70
2022/05/07 02:53:54;;;;;;;23.25;21.17;;;12.80;99.90;;;;;;4971917;28;20502;-71
2022/05/07 02:56:19;;;;;;;22.50;20.63;;;12.50;99.90;;;;;;4972040;28;20037;-71
2022/05/07 02:58:45;;;;;;;23.23;21.08;;;12.90;99.90;;;;;;4972457;28;20117;-70
2022/05/07 03:01:11;;;;;;;23.17;20.98;;;;;;;;;;4971826;28;20034;-70
2022/05/07 03:03:36;;;;;;;23.60;21.50;;;12.90;99.90;;;;;;4973146;28;20030;-71
2022/05/07 03:06:02;;;;;;;23.52;21.40;;;12.90;99.90;;;;;;4974505;28;20150;-70
2022/05/07 03:08:27;;;;;;;24.52;22.08;;;12.80;99.90;;;;;;4973622;28;20480;-70
2022/05/07 03:10:53;;;;;;;26.60;24.17;;;;;;;;;;4972363;28;20042;-70
2022/05/07 03:13:19;;;;;;;26.33;23.92;;;13.00;99.90;;;;;;4971772;28;20027;-70
2022/05/07 03:15:44;;;;;;;25.02;22.70;;;13.00;99.90;;;;;;4972025;28;20057;-70
2022/05/07 03:18:12;;;;;;;25.80;23.15;;;12.90;99.90;;;;;;4971911;28;20102;-70
2022/05/07 03:20:38;;;;;;;24.60;22.20;;;13.10;99.90;;;;;;4972068;28;20031;-71
2022/05/07 03:23:04;;;;;;;25.08;22.95;;;12.90;99.90;;;;;;4971553;28;20089;-70
2022/05/07 03:25:30;;;;;;;23.48;21.45;;;;;;;;;;4971846;28;20566;-70
2022/05/07 03:27:55;;;;;;;24.48;22.27;;;13.00;99.90;;;;;;4972123;28;20068;-70
2022/05/07 03:30:21;;;;;;;24.15;22.08;;;13.00;99.90;;;;;;4971378;28;20515;-71
2022/05/07 03:32:46;;;;;;;24.17;22.08;;;12.80;99.90;;;;;;4972187;28;20031;-70
2022/05/07 03:35:12;;;;;;;25.63;23.08;;;12.50;99.90;;;;;;4971559;28;20034;-71
2022/05/07 03:37:38;;;;;;;23.83;21.63;;;;;;;;;;4971552;28;20442;-70
2022/05/07 03:40:03;;;;;;;25.27;23.00;;;12.80;99.90;;;;;;4971532;28;20073;-70
2022/05/07 03:42:33;;;;;;;24.50;22.30;;;;;;;;;;4971935;28;20114;-70
2022/05/07 03:44:59;;;;;;;24.35;22.05;;;;;;;;;;4971975;28;20039;-71
2022/05/07 03:47:25;;;;;;;26.33;23.83;;;12.70;99.90;;;;;;4971788;28;20078;-71
2022/05/07 03:49:50;;;;;;;25.48;23.17;;;12.70;99.90;;;;;;4971922;28;20125;-70
2022/05/07 03:55:01;;;;;;;27.60;24.90;;;;;;;;;;4971750;28;20066;-71
2022/05/07 03:57:26;;;;;;;25.98;23.60;;;12.80;99.90;;;;;;4971681;28;20026;-70
2022/05/07 03:59:52;;;;;;;25.45;23.25;;;12.70;99.90;;;;;;4971581;28;20114;-71
2022/05/07 04:02:18;;;;;;;27.48;24.90;;;;;;;;;;4971378;28;20038;-71
2022/05/07 04:04:44;;;;;;;28.00;25.40;;;12.70;99.90;;;;;;4971739;28;20030;-70
2022/05/07 04:07:10;;;;;;;26.45;24.15;;;;;;;;;;4970861;28;20031;-71
2022/05/07 04:09:36;;;;;;;27.65;25.25;;;12.90;99.90;;;;;;4971606;28;20042;-70
2022/05/07 04:12:01;;;;;;;28.08;25.58;;;12.90;99.90;;;;;;4971453;28;20114;-70
2022/05/07 04:14:27;;;;;;;26.85;24.52;;;12.90;99.90;;;;;;4970384;28;20066;-70
2022/05/07 04:16:53;;;;;;;26.50;24.05;;;12.90;99.90;;;;;;4956033;28;20484;-71
2022/05/07 04:19:19;;;;;;;26.75;24.25;;;12.90;99.90;;;;;;4955681;29;20062;-70
2022/05/07 04:21:45;;;;;;;27.95;25.15;;;;;;;;;;4955818;29;20054;-72
2022/05/07 04:24:10;;;;;;;26.58;24.17;;;13.10;99.90;;;;;;4970659;28;20030;-71
2022/05/07 04:26:35;;;;;;;26.33;23.58;;;13.20;99.90;;;;;;4973886;28;20469;-70
2022/05/07 04:29:01;;;;;;;26.75;24.35;;;13.00;99.90;;;;;;4974939;28;20022;-70
2022/05/07 04:31:27;;;;;;;27.20;24.67;;;;;;;;;;4974752;28;20472;-71
2022/05/07 04:33:53;;;;;;;24.58;22.38;;;;;;;;;;4975008;28;20107;-71
2022/05/07 04:36:18;;;;;;;24.13;21.92;;;13.20;99.90;;;;;;4974212;28;20447;-71
2022/05/07 04:38:44;;;;;;;24.80;22.50;;;13.20;99.90;;;;;;4974901;28;20054;-71
2022/05/07 04:41:09;;;;;;;25.67;23.08;;;13.10;99.90;;;;;;4974657;28;20070;-71
2022/05/07 04:43:35;;;;;;;26.17;23.88;;;13.30;99.90;;;;;;4989821;28;20035;-71
2022/05/07 04:46:01;;;;;;;26.20;23.90;;;;;;;;;;4974559;28;20065;-71
2022/05/07 04:48:26;;;;;;;25.85;23.58;;;13.20;99.90;;;;;;4974331;28;20030;-71
2022/05/07 04:50:52;;;;;;;24.88;22.48;;;13.30;99.90;;;;;;4974070;28;20043;-71
2022/05/07 04:53:17;;;;;;;26.23;23.85;;;13.50;99.90;;;;;;4974419;28;20086;-71
2022/05/07 04:55:43;;;;;;;25.30;22.80;;;13.40;99.90;;;;;;4974902;28;20023;-71
2022/05/07 04:58:08;;;;;;;26.27;23.77;;;13.40;99.90;;;;;;4974140;28;20485;-71
2022/05/07 05:00:34;;;;;;;24.98;22.65;;;13.60;99.90;;;;;;4974559;28;20030;-71
2022/05/07 05:02:59;;;;;;;27.10;24.63;;;13.40;99.90;;;;;;4974213;28;20104;-71
2022/05/07 05:05:25;;;;;;;26.60;24.08;;;13.50;99.90;;;;;;4973916;28;20041;-71
2022/05/07 05:07:51;;;;;;;25.88;23.55;;;13.80;99.90;;;;;;4974364;28;20027;-71
2022/05/07 05:10:18;;;;;;;26.42;24.02;;;13.50;99.90;;;;;;4973531;28;20046;-71
2022/05/07 05:12:43;;;;;;;26.92;24.45;;;13.60;99.90;;;;;;4973931;28;20046;-71
2022/05/07 05:15:09;;;;;;;27.52;24.75;;;13.60;99.90;;;;;;4974124;28;20078;-71
2022/05/07 05:17:37;;;;;;;26.75;24.02;;;14.10;99.90;;;;;;4973593;28;20029;-72
2022/05/07 05:20:04;;;;;;;28.30;25.67;;;14.10;99.90;;;;;;4973750;28;20041;-71
2022/05/07 05:22:30;;;;;;;30.00;27.23;;;14.10;99.90;;;;;;4974054;28;20117;-71
2022/05/07 05:24:56;;;;;;;28.02;25.48;;;13.80;99.90;;;;;;4974396;28;20035;-71
2022/05/07 05:27:21;;;;;;;29.10;26.25;;;13.80;99.90;;;;;;4974701;28;20029;-71
2022/05/07 05:29:47;;;;;;;31.70;28.42;;;;;;;;;;4974977;28;20121;-71
2022/05/07 05:32:17;;;;;;;32.38;29.17;;;14.00;99.90;;;;;;4974057;28;20026;-72
2022/05/07 05:34:47;;;;;;;31.30;28.33;;;14.10;99.90;;;;;;4973374;28;20097;-71
2022/05/07 05:37:15;;;;;;;34.75;31.35;;;14.00;99.90;;;;;;4973954;28;20031;-71
2022/05/07 05:39:40;;;;;;;36.15;32.65;;;14.10;99.90;;;;;;4973831;28;20110;-71
2022/05/07 05:42:06;;;;;;;37.22;33.63;;;14.20;99.90;;;;;;4973438;28;20469;-72
2022/05/07 05:44:35;;;;;;;37.08;33.50;;;14.20;99.90;;;;;;4973792;28;20027;-71
2022/05/07 05:47:01;;;;;;;36.92;33.60;;;;;;;;;;4972849;28;20027;-71
2022/05/07 05:49:27;;;;;;;39.33;35.53;;;14.30;99.90;;;;;;4970060;28;20035;-71
2022/05/07 05:51:52;;;;;;;38.72;35.08;;;14.40;99.90;;;;;;4973586;28;20031;-71
2022/05/07 05:54:18;;;;;;;37.50;33.40;;;14.30;99.90;;;;;;4973320;28;20041;-71
2022/05/07 05:56:43;;;;;;;41.60;37.35;;;14.40;99.90;;;;;;4973457;28;20476;-72
2022/05/07 05:59:09;;;;;;;41.65;37.50;;;;;;;;;;4973219;28;20081;-71
2022/05/07 06:01:35;;;;;;;41.72;37.47;;;14.40;99.90;;;;;;4973005;28;20132;-71
2022/05/07 06:04:00;;;;;;;44.08;39.70;;;14.40;99.90;;;;;;4972943;28;20027;-71
2022/05/07 06:06:26;;;;;;;44.33;39.92;;;;;;;;;;4973093;28;20109;-71
2022/05/07 06:08:51;;;;;;;42.75;38.33;;;14.50;99.90;;;;;;4970309;28;20031;-71
2022/05/07 06:11:17;;;;;;;39.47;35.45;;;14.50;99.90;;;;;;4972484;28;20043;-71
2022/05/07 06:13:43;;;;;;;36.72;33.35;;;14.50;99.90;;;;;;4972846;28;20053;-72
2022/05/07 06:16:09;;;;;;;37.08;33.53;;;14.50;99.90;;;;;;4972299;28;20031;-71
2022/05/07 06:18:34;;;;;;;40.00;35.92;;;14.80;99.90;;;;;;4972740;28;20499;-71
2022/05/07 06:21:02;;;;;;;39.55;35.65;;;14.90;99.90;;;;;;4972727;28;20122;-71
2022/05/07 06:23:29;;;;;;;38.95;35.00;;;;;;;;;;4972951;28;20113;-71
2022/05/07 06:28:38;;;;;;;39.97;36.05;;;14.90;99.90;;;;;;4972500;28;20089;-72
2022/05/07 06:31:04;;;;;;;36.30;32.70;;;14.80;99.90;;;;;;4971841;28;20436;-71
2022/05/07 06:33:29;;;;;;;37.58;34.13;;;14.90;99.90;;;;;;4972757;28;20111;-72
2022/05/07 06:35:55;;;;;;;33.88;29.67;;;15.00;99.90;;;;;;4969130;28;20034;-70
2022/05/07 06:38:21;;;;;;;33.70;30.30;;;15.20;99.90;;;;;;4971941;28;20054;-70
2022/05/07 06:40:47;;;;;;;27.98;25.17;;;15.20;99.90;;;;;;4972394;28;20078;-72
2022/05/07 06:43:12;;;;;;;30.67;27.70;;;15.20;99.90;;;;;;4972274;28;20019;-71
2022/05/07 06:45:38;;;;;;;28.10;25.25;;;15.40;99.90;;;;;;4972056;28;20039;-71
2022/05/07 06:48:08;;;;;;;30.23;27.05;;;15.20;99.90;;;;;;4972292;28;20030;-72
2022/05/07 06:50:33;;;;;;;29.73;26.58;;;15.50;99.90;;;;;;4972516;28;20443;-71
2022/05/07 06:52:59;;;;;;;26.10;23.50;;;15.50;99.90;;;;;;4972240;28;20086;-71
2022/05/07 06:55:25;;;;;;;27.27;24.52;;;15.70;99.90;;;;;;4972535;28;20022;-70
2022/05/07 06:57:53;;;;;;;26.73;24.05;;;15.60;99.90;;;;;;4956002;28;20027;-71
2022/05/07 07:00:18;;;;;;;26.40;23.48;;;15.90;99.90;;;;;;4952907;28;20385;-70
2022/05/07 07:02:44;;;;;;;25.52;22.60;;;15.90;99.90;;;;;;4953027;28;20491;-71
2022/05/07 07:05:10;;;;;;;27.00;24.30;;;15.90;99.90;;;;;;4955486;28;20126;-71
2022/05/07 07:07:35;;;;;;;28.75;25.58;;;16.10;99.90;;;;;;4955491;28;20027;-71
2022/05/07 07:10:01;;;;;;;24.90;22.33;;;16.20;99.90;;;;;;4952532;28;20027;-71
2022/05/07 07:12:28;;;;;;;27.30;24.27;;;16.20;99.90;;;;;;4952930;28;20027;-71
2022/05/07 07:14:53;;;;;;;28.65;23.42;;;16.60;99.90;;;;;;4960017;28;20039;-70
2022/05/07 07:17:19;;;;;;;26.52;21.92;;;16.40;99.90;;;;;;4971856;28;20030;-70
2022/05/07 07:19:45;;;;;;;28.98;25.50;;;16.60;99.90;;;;;;4972203;28;20038;-70
2022/05/07 07:22:11;;;;;;;24.05;21.58;;;16.70;99.90;;;;;;4971784;28;20122;-73
2022/05/07 07:24:36;;;;;;;22.50;20.13;;;16.70;99.90;;;;;;4972043;28;20439;-72
2022/05/07 07:27:04;;;;;;;23.13;20.73;;;16.90;99.90;;;;;;4971741;28;20027;-70
2022/05/07 07:29:29;;;;;;;22.90;20.48;;;17.00;99.90;;;;;;4970265;28;20105;-70
2022/05/07 07:31:55;;;;;;;23.63;20.38;;;17.20;99.90;;;;;;4971985;28;20038;-72
2022/05/07 07:34:21;;;;;;;21.80;19.08;;;17.20;99.90;;;;;;4971588;28;20121;-70
2022/05/07 07:36:50;;;;;;;23.73;17.00;;;17.20;99.90;;;;;;4972198;28;20023;-70
2022/05/07 07:39:16;;;;;;;26.42;18.38;;;17.20;99.90;;;;;;4971578;28;20023;-70
2022/05/07 07:41:41;;;;;;;21.90;17.63;;;17.20;99.90;;;;;;4972011;28;20022;-70
2022/05/07 07:44:07;;;;;;;22.30;17.88;;;17.10;99.90;;;;;;4969738;28;20053;-70
2022/05/07 07:49:17;;;;;;;21.10;16.05;;;17.10;99.00;;;;;;4973088;28;20084;-70
2022/05/07 07:51:42;;;;;;;21.75;15.13;;;17.10;99.90;;;;;;4972847;28;20535;-70
2022/05/07 07:54:08;;;;;;;24.30;16.33;;;17.10;99.80;;;;;;4971902;28;20031;-70
2022/05/07 07:56:34;;;;;;;21.85;16.25;;;17.20;99.70;;;;;;4975360;28;20158;-70
2022/05/07 07:58:59;;;;;;;17.30;14.65;;;17.50;99.70;;;;;;4974953;28;20054;-69
2022/05/07 08:01:25;;;;;;;25.50;18.00;;;17.30;99.60;;;;;;4975626;28;20027;-69
2022/05/07 08:03:50;;;;;;;23.00;16.27;;;17.30;99.00;;;;;;4975546;28;20062;-69
2022/05/07 08:06:16;;;;;;;20.77;15.18;;;17.40;98.70;;;;;;4974379;28;20030;-69
2022/05/07 08:11:41;;;;;;;19.35;15.25;;;17.50;97.90;;;;;;4964508;28;20780;-69
2022/05/07 08:14:13;;;;;;;22.67;15.32;;;17.60;97.80;;;;;;4955533;28;20044;-69
2022/05/07 08:16:39;;;;;;;19.80;14.95;;;17.60;97.70;;;;;;4973234;28;20050;-71
2022/05/07 08:19:06;;;;;;;19.42;13.13;;;17.60;97.90;;;;;;4968522;28;20023;-70
2022/05/07 08:21:32;;;;;;;22.02;14.40;;;17.60;97.90;;;;;;4973518;28;20058;-69
2022/05/07 08:23:58;;;;;;;23.90;15.05;;;17.60;97.50;;;;;;4974105;28;20050;-69
2022/05/07 08:26:24;;;;;;;22.20;15.90;;;17.50;97.40;;;;;;4968356;28;20039;-69
2022/05/07 08:28:51;;;;;;;20.98;14.93;;;17.60;97.40;;;;;;4954630;28;20042;-69
2022/05/07 08:31:18;;;;;;;21.25;15.38;;;17.60;97.40;;;;;;4971141;28;20082;-69
2022/05/07 08:33:43;;;;;;;19.52;13.63;;;17.70;97.40;;;;;;4972149;28;20399;-69
2022/05/07 08:36:11;;;;;;;20.55;13.88;;;17.80;97.40;;;;;;4973504;28;20062;-70
2022/05/07 08:38:36;;;;;;;23.77;14.30;;;17.90;97.20;;;;;;4972356;28;20369;-70
2022/05/07 08:41:03;;;;;;;20.58;14.55;;;18.00;96.80;;;;;;4972624;28;20119;-70
2022/05/07 08:43:37;;;;;;;24.35;16.45;;;18.10;96.90;;;;;;4970456;28;20058;-71
2022/05/07 08:46:08;;;;;;;;;;;18.10;96.80;;;;;;4971273;28;20039;-70
2022/05/07 08:48:33;;;;;;;24.13;14.68;;;18.20;96.90;;;;;;4972183;28;19910;-70
2022/05/07 08:51:00;;;;;;;24.63;14.52;;;18.30;96.20;;;;;;4969372;28;20047;-70
2022/05/07 08:53:25;;;;;;;23.13;14.60;;;18.30;96.00;;;;;;4972262;28;20037;-70
2022/05/07 08:55:54;;;;;;;15.75;13.15;;;18.40;95.90;;;;;;4971581;28;20026;-70
2022/05/07 08:58:20;;;;;;;19.17;15.43;;;18.40;96.20;;;;;;4969139;28;20101;-71
2022/05/07 09:00:45;;;;;;;21.95;15.15;;;18.50;95.80;;;;;;4973746;28;20224;-71
2022/05/07 09:03:15;;;;;;;17.52;13.73;;;18.70;95.60;;;;;;4971769;28;20591;-72
2022/05/07 09:05:40;;;;;;;20.98;15.43;;;19.20;95.90;;;;;;4973054;28;20031;-70
2022/05/07 09:08:07;;;;;;;23.27;16.45;;;18.80;95.20;;;;;;4973047;28;20097;-71
2022/05/07 09:10:34;;;;;;;20.38;15.43;;;18.90;95.10;;;;;;4972813;28;20039;-72
2022/05/07 09:15:56;;;;;;;17.95;13.25;;;19.30;99.90;;;;;;5068102;28;20391;-72
2022/05/07 09:18:22;;;;;;;;;;;19.10;94.40;;;;;;5068254;28;20042;-72
2022/05/07 09:21:25;;;;;;;18.75;14.05;;;19.40;99.90;;;;;;5068079;28;19980;-71
2022/05/07 09:24:06;;;;;;;16.92;12.90;;;19.30;94.40;;;;;;5067714;28;20025;-71
2022/05/07 09:26:35;;;;;;;16.50;12.77;;;19.40;99.90;;;;;;5067119;28;20540;-71
2022/05/07 09:29:03;;;;;;;18.70;13.20;;;19.50;94.60;;;;;;5066601;28;20029;-72
2022/05/07 09:31:32;;;;;;;17.58;11.75;;;19.50;93.90;;;;;;5067010;28;20020;-72
2022/05/07 09:36:44;;;;;;;14.63;11.43;;;22.10;93.70;;;;;;5067611;28;20027;-71
2022/05/07 09:39:12;;;;;;;13.65;10.93;;;19.70;92.80;;;;;;5066897;28;20113;-72
2022/05/07 09:41:38;;;;;;;12.82;9.82;;;19.80;92.90;;;;;;5066841;28;20016;-72
2022/05/07 09:44:04;;;;;;;16.25;9.98;;;20.10;92.60;;;;;;5053374;28;20393;-72
2022/05/07 09:46:32;;;;;;;17.38;11.82;;;20.00;92.30;;;;;;5067086;28;20025;-71
2022/05/07 09:49:00;;;;;;;16.33;9.93;;;20.20;92.00;;;;;;5067103;28;20115;-71
2022/05/07 09:51:27;;;;;;;12.93;9.98;;;20.00;91.90;;;;;;5067218;28;20075;-72
2022/05/07 09:59:21;;;;;;;16.05;9.30;;;20.50;90.00;;;;;;5047383;28;20044;-72
2022/05/07 10:02:15;;;;;;;17.90;11.55;;;20.50;90.50;;;;;;5049224;28;20022;-72
2022/05/07 10:05:20;;;;;;;13.40;9.98;;;20.70;90.00;;;;;;5067215;28;20037;-73
2022/05/07 10:08:20;;;;;;;16.75;10.38;;;20.70;90.10;;;;;;5068812;28;20033;-72
2022/05/07 10:10:48;;;;;;;13.15;9.30;;;20.70;90.00;;;;;;5066957;28;20037;-72
2022/05/07 10:13:19;;;;;;;20.63;12.13;;;20.80;90.70;;;;;;5066730;28;20108;-72
2022/05/07 10:15:46;;;;;;;20.20;11.82;;;20.90;89.80;;;;;;5066841;28;20474;-72
2022/05/07 10:18:16;;;;;;;17.38;11.50;;;20.90;88.50;;;;;;5062670;28;20086;-72
2022/05/07 10:20:47;;;;;;;19.70;11.00;;;21.10;89.00;;;;;;5067666;28;20056;-72
2022/05/07 10:23:14;;;;;;;16.75;10.45;;;21.20;89.00;;;;;;5066052;28;20466;-73
2022/05/07 10:25:43;;;;;;;11.80;9.63;;;21.40;88.30;;;;;;5061287;28;20033;-73
2022/05/07 10:28:10;;;;;;;11.27;8.93;;;21.60;87.90;;;;;;5051969;28;20406;-73
2022/05/07 10:30:45;;;;;;;15.55;10.85;;;21.80;87.50;;;;;;5053217;28;20035;-74
2022/05/07 10:33:11;;;;;;;16.00;11.25;;;21.90;87.40;;;;;;5053163;28;20508;-73
2022/05/07 10:35:42;;;;;;;14.95;10.57;;;21.90;85.60;;;;;;5052129;28;20049;-73
2022/05/07 10:38:10;;;;;;;14.15;9.38;;;22.00;84.60;;;;;;5052572;28;20021;-72
2022/05/07 10:40:36;;;;;;;16.50;10.23;;;22.10;85.40;;;;;;5050167;28;20040;-72
2022/05/07 10:43:03;;;;;;;11.93;9.48;;;22.30;84.60;;;;;;5051585;28;20386;-72
2022/05/07 10:45:40;;;;;;;11.30;9.02;;;22.40;84.30;;;;;;5053421;28;20017;-72
2022/05/07 10:48:15;;;;;;;17.67;10.00;;;22.50;84.20;;;;;;5052988;28;20057;-72
2022/05/07 10:50:53;;;;;;;10.95;9.07;;;22.70;83.40;;;;;;5053215;28;20029;-72
2022/05/07 10:53:20;;;;;;;12.60;9.65;;;22.80;83.40;;;;;;5051240;28;20025;-72
2022/05/07 10:55:45;;;;;;;15.73;11.35;;;22.60;82.10;;;;;;5052924;28;20037;-72
2022/05/07 10:58:11;;;;;;;14.75;10.23;;;22.50;81.20;;;;;;5045079;28;20040;-72
2022/05/07 11:00:36;;;;;;;14.50;9.50;;;22.50;81.50;;;;;;5048995;28;20489;-72
2022/05/07 11:03:02;;;;;;;11.15;8.95;;;22.50;81.20;;;;;;5052180;28;20073;-72
2022/05/07 11:05:32;;;;;;;12.80;9.07;;;22.60;80.60;;;;;;5052828;28;20036;-72
2022/05/07 11:07:59;;;;;;;10.52;8.13;;;22.70;81.00;;;;;;5052404;28;20017;-72
2022/05/07 11:10:25;;;;;;;14.18;10.73;;;23.00;80.20;;;;;;5052791;28;20082;-72
2022/05/07 11:12:51;;;;;;;13.60;10.43;;;23.00;78.60;;;;;;5052724;28;20036;-73
2022/05/07 11:15:24;;;;;;;11.45;8.98;;;23.20;78.90;;;;;;5052160;28;20056;-73
2022/05/07 11:17:50;;;;;;;12.50;9.75;;;23.10;79.20;;;;;;5052383;28;20033;-72
2022/05/07 11:20:27;;;;;;;13.75;11.02;;;23.00;78.40;;;;;;5052267;28;20078;-73
2022/05/07 11:22:59;;;;;;;16.08;10.40;;;22.90;78.80;;;;;;5052553;28;20033;-72
2022/05/07 11:25:24;;;;;;;11.32;9.13;;;22.70;79.50;;;;;;5052536;28;20020;-72
2022/05/07 11:27:51;;;;;;;10.10;8.27;;;22.80;79.00;;;;;;5052482;28;20028;-72
2022/05/07 11:30:17;;;;;;;8.50;7.30;;;22.70;79.10;;;;;;5052192;28;20017;-73
2022/05/07 11:32:44;;;;;;;10.13;7.95;;;23.80;79.50;;;;;;5039503;28;20029;-72
2022/05/07 11:35:10;;;;;;;14.30;8.25;;;22.60;78.20;;;;;;5031492;28;20029;-72
2022/05/07 11:37:41;;;;;;;11.32;8.85;;;22.60;78.50;;;;;;5030160;28;20029;-73
2022/05/07 11:40:07;;;;;;;11.02;8.88;;;22.40;79.40;;;;;;5030641;28;20132;-72
2022/05/07 11:42:43;;;;;;;12.60;9.23;;;22.20;79.60;;;;;;5031838;28;20029;-71
2022/05/07 11:45:33;;;;;;;11.98;9.50;;;21.90;81.70;;;;;;5031780;28;20034;-72
2022/05/07 11:48:07;;;;;;;12.77;9.80;;;21.70;83.10;;;;;;5031743;28;20108;-72
2022/05/07 11:51:00;;;;;;;12.63;9.18;;;21.40;84.60;;;;;;5031528;28;20091;-72
2022/05/07 11:53:30;;;;;;;16.60;10.65;;;21.10;86.10;;;;;;5047889;28;20393;-73
2022/05/07 11:56:11;;;;;;;14.13;9.95;;;20.80;87.80;;;;;;5051684;28;20043;-72
2022/05/07 11:58:49;;;;;;;13.65;10.05;;;20.40;90.10;;;;;;5051945;28;20110;-72
2022/05/07 12:01:30;;;;;;;13.25;10.45;;;20.10;90.50;;;;;;5051654;28;20727;-72
2022/05/07 12:04:08;;;;;;;13.75;10.13;;;19.60;93.00;;;;;;5051110;28;20123;-72
2022/05/07 12:06:34;;;;;;;11.30;7.40;;;;;;;;;;5041042;28;20032;-72
2022/05/07 12:09:13;;;;;;;13.40;8.55;;;19.10;92.80;;;;;;5050891;28;20386;-72
2022/05/07 12:11:42;;;;;;;10.02;7.78;;;18.80;99.90;;;;;;5051649;28;20082;-72
2022/05/07 12:14:08;;;;;;;10.75;7.10;;;18.80;94.80;;;;;;5049677;28;20467;-72
2022/05/07 12:19:33;;;;;;;9.15;6.95;;;18.80;94.20;;;;;;5051040;28;20036;-72
2022/05/07 12:30:15;;;;;;;6.35;5.03;;;18.90;99.90;;;;;;5051475;28;20040;-72
2022/05/07 12:32:43;;;;;;;7.93;5.20;;;18.80;94.30;;;;;;5053528;28;20039;-72
2022/05/07 12:35:09;;;;;;;9.18;6.25;;;18.80;94.60;;;;;;5049517;28;20553;-72
2022/05/07 12:37:37;;;;;;;11.75;8.27;;;19.10;99.90;;;;;;5050958;28;20103;-72
2022/05/07 12:40:03;;;;;;;7.97;5.95;;;;;;;;;;5050759;28;20017;-72
2022/05/07 12:42:29;;;;;;;10.73;7.22;;;19.10;99.90;;;;;;5052598;28;20033;-73
2022/05/07 12:44:55;;;;;;;10.65;7.43;;;19.70;99.90;;;;;;5054127;28;20074;-71
2022/05/07 12:47:20;;;;;;;8.52;6.68;;;19.70;93.40;;;;;;5050634;28;20112;-72
2022/05/07 12:49:46;;;;;;;11.10;6.85;;;19.90;93.10;;;;;;5049873;28;20470;-72
2022/05/07 12:52:11;;;;;;;6.93;6.07;;;20.20;92.70;;;;;;5050448;28;20039;-72
2022/05/07 12:54:38;;;;;;;10.45;6.68;;;20.30;92.60;;;;;;5050441;28;20041;-72
2022/05/07 12:57:04;;;;;;;13.65;9.50;;;20.50;92.40;;;;;;5050824;28;20081;-72
2022/05/07 12:59:30;;;;;;;14.75;9.02;;;20.70;91.80;;;;;;5057814;28;20021;-72
2022/05/07 13:01:57;;;;;;;14.98;9.57;;;20.80;91.50;;;;;;5070413;28;20427;-72
2022/05/07 13:04:24;;;;;;;14.73;9.60;;;21.10;91.30;;;;;;5070536;28;20062;-72
2022/05/07 13:06:53;;;;;;;17.45;12.80;;;21.20;91.00;;;;;;5056083;28;20033;-71
2022/05/07 13:09:18;;;;;;;19.00;13.63;;;21.50;90.00;;;;;;5068653;28;20043;-72
2022/05/07 13:11:44;;;;;;;16.30;11.88;;;21.50;90.30;;;;;;5065085;28;20033;-72
2022/05/07 13:14:10;;;;;;;15.80;11.65;;;21.70;90.10;;;;;;5030242;28;20052;-71
2022/05/07 13:16:36;;;;;;;17.33;12.18;;;21.70;89.80;;;;;;5030439;28;20064;-72
2022/05/07 13:19:02;;;;;;;16.33;12.40;;;21.70;90.00;;;;;;5040846;28;20025;-73
2022/05/07 13:21:27;;;;;;;13.93;10.73;;;21.60;90.00;;;;;;5050530;28;20385;-73
2022/05/07 13:23:53;;;;;;;15.18;10.68;;;21.70;89.60;;;;;;5050546;28;20029;-73